Photometre #44[NE_1.6] Rome_La_Sapienza AOT

File : 20220925_44.hum

25/09/2022,05:48:21,TEMP=16.8,BA=5.68,STAT.A=6.5,ExtBa=13.32
25/09/2022,05:51:49,TEMP=16.9,BA=5.52,STAT.A=6.5,ExtBa=13.32
25/09/2022,05:55:50,TEMP=17.0,BA=5.52,STAT.A=6.5,ExtBa=13.31
25/09/2022,06:00:40,TEMP=17.1,BA=5.68,STAT.A=6.5,ExtBa=13.31
25/09/2022,06:06:29,TEMP=17.2,BA=5.68,STAT.A=6.5,ExtBa=13.32
25/09/2022,06:13:38,TEMP=17.3,BA=5.68,STAT.A=6.5,ExtBa=13.31
25/09/2022,06:22:41,TEMP=17.4,BA=5.68,STAT.B=6.5,ExtBa=13.32
25/09/2022,06:27:01,TEMP=17.6,BA=5.68,STAT.A=6.5,ExtBa=13.32
25/09/2022,06:31:51,TEMP=17.6,BA=5.68,STAT.A=6.5,ExtBa=13.32
25/09/2022,06:37:20,TEMP=17.6,BA=5.68,STAT.A=6.5,ExtBa=13.31
25/09/2022,06:43:33,TEMP=17.7,BA=5.68,STAT.A=6.5,ExtBa=13.31
25/09/2022,06:50:42,TEMP=17.7,BA=5.68,STAT.C=6.5,ExtBa=13.31
25/09/2022,06:59:01,TEMP=17.8,BA=5.68,STAT.A=6.5,ExtBa=13.32
25/09/2022,07:08:50,TEMP=18.0,BA=5.56,STAT.A=6.5,ExtBa=13.31
25/09/2022,07:20:37,TEMP=18.2,BA=5.68,STAT.A=6.5,ExtBa=13.32
25/09/2022,07:35:07,TEMP=18.6,BA=5.68,STAT.A=6.5,ExtBa=13.32
25/09/2022,07:53:32,TEMP=19.0,BA=5.68,STAT.B=6.5,ExtBa=13.32
25/09/2022,08:04:45,TEMP=19.2,BA=5.52,STAT.F,ExtBa=12.96
25/09/2022,08:17:45,TEMP=19.9,BA=5.52,STAT.h
25/09/2022,08:18:37,TEMP=19.9,BA=5.52,STAT.h
25/09/2022,08:18:38,TEMP=19.9,BA=5.52,STAT.h
25/09/2022,08:31:58,TEMP=19.9,BA=5.68,STAT.h
25/09/2022,08:31:59,TEMP=19.9,BA=5.68,STAT.h
25/09/2022,08:47:07,TEMP=19.9,BA=5.68,STAT.h
25/09/2022,08:47:12,TEMP=19.9,BA=5.68,STAT.h
25/09/2022,09:02:17,TEMP=25.0,BA=5.68,STAT.F,ExtBa=13.47
25/09/2022,09:20:04,TEMP=26.4,BA=5.52,STAT.D=6.5,ExtBa=13.05
25/09/2022,09:32:16,TEMP=26.8,BA=5.68,STAT.D=6.5,ExtBa=13.35
25/09/2022,09:47:16,TEMP=27.2,BA=5.64,STAT.D=6.5,ExtBa=13.43
25/09/2022,10:20:37,TEMP=26.8,BA=5.48,STAT.b=6.5
25/09/2022,10:32:15,TEMP=26.7,BA=5.56,STAT.D=6.5,ExtBa=13.35
25/09/2022,10:47:16,TEMP=26.5,BA=5.56,STAT.D=7.0,ExtBa=13.41
25/09/2022,11:02:18,TEMP=26.3,BA=5.52,STAT.F,ExtBa=13.44
25/09/2022,11:17:16,TEMP=25.3,BA=5.52,STAT.D=7.0,ExtBa=13.34
25/09/2022,11:32:16,TEMP=24.1,BA=5.52,STAT.D=7.0,ExtBa=13.43
25/09/2022,11:47:16,TEMP=23.5,BA=5.52,STAT.D=6.5,ExtBa=13.44
25/09/2022,12:02:18,TEMP=22.4,BA=5.56,STAT.F,ExtBa=13.41
25/09/2022,12:17:16,TEMP=19.8,BA=5.60,STAT.D=6.5,ExtBa=13.39
25/09/2022,12:32:16,TEMP=19.6,BA=5.60,STAT.D=6.5,ExtBa=13.36
25/09/2022,12:47:16,TEMP=19.3,BA=5.60,STAT.D=6.5,ExtBa=13.35
25/09/2022,13:02:17,TEMP=19.2,BA=5.64,STAT.F,ExtBa=13.33
25/09/2022,13:17:16,TEMP=19.1,BA=5.68,STAT.D=6.5,ExtBa=13.33
25/09/2022,13:32:15,TEMP=18.9,BA=5.68,STAT.D=6.5,ExtBa=13.33
25/09/2022,13:47:15,TEMP=18.7,BA=5.68,STAT.D=6.5,ExtBa=13.32
25/09/2022,14:02:17,TEMP=18.6,BA=5.68,STAT.F,ExtBa=13.31
25/09/2022,14:11:02,TEMP=18.7,BA=5.68,STAT.B=6.5,ExtBa=13.32
25/09/2022,14:29:27,TEMP=18.9,BA=5.68,STAT.A=6.5,ExtBa=13.32
25/09/2022,14:43:57,TEMP=19.1,BA=5.68,STAT.A=6.5,ExtBa=13.32
25/09/2022,14:55:44,TEMP=19.2,BA=5.68,STAT.A=6.5,ExtBa=13.31
25/09/2022,15:05:32,TEMP=19.3,BA=5.68,STAT.A=6.5,ExtBa=13.32
25/09/2022,15:13:50,TEMP=19.5,BA=5.68,STAT.C=6.5,ExtBa=13.31
25/09/2022,15:20:59,TEMP=19.6,BA=5.68,STAT.A=6.5,ExtBa=13.31
25/09/2022,15:27:12,TEMP=19.9,BA=5.68,STAT.A=6.5,ExtBa=13.31
25/09/2022,15:32:41,TEMP=20.7,BA=5.64,STAT.A=6.5,ExtBa=13.27
25/09/2022,15:37:31,TEMP=21.2,BA=5.64,STAT.A=6.5,ExtBa=13.23
25/09/2022,15:41:51,TEMP=21.5,BA=5.68,STAT.B=6.5,ExtBa=13.24
25/09/2022,15:53:09,TEMP=21.4,BA=5.52,STAT.A=6.5,ExtBa=13.00
25/09/2022,15:58:03,TEMP=21.4,BA=5.52,STAT.A=6.5,ExtBa=13.13
25/09/2022,16:03:52,TEMP=20.9,BA=5.56,STAT.A=6.5,ExtBa=13.24
25/09/2022,16:08:40,TEMP=20.6,BA=5.56,STAT.A=6.5,ExtBa=13.30
25/09/2022,16:12:43,TEMP=20.4,BA=5.52,STAT.A=6.5,ExtBa=13.33
25/09/2022,16:16:11,TEMP=20.2,BA=5.52,STAT.A=6.5,ExtBa=13.34